Time;durP1;ratioP1;P1;durP2;ratioP2;P2;SDS_P1;SDS_P2;PMS_P1;PMS_P2;Temp;Humidity;BMP_temperature;BMP_pressure;BME280_temperature;BME280_humidity;BME280_pressure;Samples;Min_cycle;Max_cycle;Signal;HPM_P1;HPM_P2
2022/03/05 05:01:25;;;;;;;18.20;13.03;;;0.80;99.90;;;;;;5498501;23;20645;-67
2022/03/05 05:03:52;;;;;;;14.47;12.63;;;0.80;99.90;;;;;;4997726;28;20941;-67
2022/03/05 05:06:19;;;;;;;15.20;13.10;;;0.90;99.90;;;;;;4997471;28;20458;-68
2022/03/05 05:08:46;;;;;;;15.30;12.50;;;1.00;99.90;;;;;;5001487;28;20455;-68
2022/03/05 05:11:12;;;;;;;16.30;13.30;;;1.00;99.90;;;;;;5004761;28;20472;-68
2022/03/05 05:13:39;;;;;;;14.13;12.60;;;1.20;99.90;;;;;;5003502;28;20453;-67
2022/03/05 05:16:06;;;;;;;15.13;12.70;;;1.10;99.90;;;;;;5001046;28;20946;-67
2022/03/05 05:18:34;;;;;;;14.73;12.60;;;0.80;99.90;;;;;;4999533;28;21033;-67
2022/03/05 05:21:01;;;;;;;18.97;14.10;;;0.70;99.90;;;;;;4999068;28;20487;-67
2022/03/05 05:23:28;;;;;;;19.33;14.63;;;0.50;99.90;;;;;;4999072;28;20451;-67
2022/03/05 05:25:55;;;;;;;17.07;13.90;;;0.40;99.90;;;;;;4998547;28;20461;-67
2022/03/05 05:28:22;;;;;;;15.50;12.50;;;0.40;99.90;;;;;;4997790;28;20452;-67
2022/03/05 05:30:49;;;;;;;14.70;12.90;;;0.40;99.90;;;;;;5011982;28;20490;-68
2022/03/05 05:33:16;;;;;;;15.03;12.90;;;0.50;99.90;;;;;;5009896;28;20441;-68
2022/03/05 05:35:44;;;;;;;16.90;12.77;;;0.60;99.90;;;;;;4996679;28;20455;-67
2022/03/05 05:38:10;;;;;;;21.20;13.43;;;0.70;99.90;;;;;;4997005;28;20480;-68
2022/03/05 05:40:37;;;;;;;16.67;13.07;;;0.90;99.90;;;;;;4996209;28;20483;-67
2022/03/05 05:43:04;;;;;;;21.23;13.20;;;0.90;99.90;;;;;;4996777;28;20460;-67
2022/03/05 05:45:30;;;;;;;16.20;12.87;;;0.80;99.90;;;;;;4996312;28;20461;-68
2022/03/05 05:47:58;;;;;;;15.35;12.50;;;0.80;99.90;;;;;;4996356;28;20457;-68
2022/03/05 05:50:25;;;;;;;15.70;12.80;;;0.70;99.90;;;;;;4996124;28;20510;-68
2022/03/05 05:52:53;;;;;;;15.97;13.60;;;0.50;99.90;;;;;;4996123;28;20470;-69
2022/03/05 05:55:20;;;;;;;15.43;12.80;;;0.50;99.90;;;;;;4995777;28;20469;-69
2022/03/05 05:57:46;;;;;;;18.13;14.77;;;0.40;99.90;;;;;;4995969;28;20937;-69
2022/03/05 06:00:14;;;;;;;14.80;13.13;;;0.20;99.90;;;;;;4996687;28;20477;-69
2022/03/05 06:02:40;;;;;;;18.33;15.27;;;0.10;99.90;;;;;;4999406;28;20514;-69
2022/03/05 06:05:08;;;;;;;16.83;13.57;;;0.00;99.90;;;;;;5000524;28;20456;-69
2022/03/05 06:07:34;;;;;;;15.53;13.93;;;0.00;99.90;;;;;;4996203;28;20461;-69
2022/03/05 06:10:03;;;;;;;18.37;14.83;;;0.00;99.90;;;;;;4995724;28;20450;-68
2022/03/05 06:12:30;;;;;;;19.67;15.50;;;0.00;99.90;;;;;;4995509;28;20482;-69
2022/03/05 06:14:56;;;;;;;14.77;13.27;;;0.00;99.90;;;;;;4995625;28;20946;-69
2022/03/05 06:17:23;;;;;;;15.47;13.40;;;0.10;99.90;;;;;;4995471;28;20957;-69
2022/03/05 06:19:50;;;;;;;17.57;14.63;;;0.00;99.90;;;;;;4996109;28;20481;-69
2022/03/05 06:22:16;;;;;;;16.33;14.37;;;0.10;99.90;;;;;;4995900;28;20485;-69
2022/03/05 06:24:43;;;;;;;18.53;14.77;;;0.10;99.90;;;;;;4995359;28;20462;-69
2022/03/05 06:27:11;;;;;;;18.47;15.60;;;0.20;99.90;;;;;;4995624;28;20946;-68
2022/03/05 06:29:38;;;;;;;18.77;15.80;;;0.20;99.90;;;;;;4995870;28;20498;-68
2022/03/05 06:32:05;;;;;;;17.00;14.60;;;0.20;99.90;;;;;;4995813;28;20482;-69
2022/03/05 06:34:32;;;;;;;19.80;16.77;;;0.20;99.90;;;;;;4996182;28;20458;-68
2022/03/05 06:37:00;;;;;;;19.97;15.73;;;0.20;99.90;;;;;;4995692;28;20486;-68
2022/03/05 06:39:27;;;;;;;17.53;14.63;;;0.20;99.90;;;;;;4995139;28;20997;-69
2022/03/05 06:41:54;;;;;;;17.60;15.40;;;0.20;99.90;;;;;;4995289;28;20953;-69
2022/03/05 06:44:22;;;;;;;18.10;15.80;;;0.10;99.90;;;;;;4996728;28;20458;-68
2022/03/05 06:46:49;;;;;;;20.93;15.83;;;0.10;99.90;;;;;;4996431;28;20457;-68
2022/03/05 06:49:16;;;;;;;18.93;15.00;;;0.10;99.90;;;;;;4996749;28;20503;-68
2022/03/05 06:51:42;;;;;;;22.13;16.00;;;0.10;99.90;;;;;;4996909;28;20475;-68
2022/03/05 06:54:09;;;;;;;19.13;15.83;;;0.20;99.90;;;;;;4996226;28;20450;-69
2022/03/05 06:56:36;;;;;;;17.37;14.67;;;0.20;99.90;;;;;;4998415;28;20944;-69
2022/03/05 06:59:03;;;;;;;20.37;15.03;;;0.20;99.90;;;;;;5000081;28;20557;-69
2022/03/05 07:01:31;;;;;;;18.90;15.23;;;0.40;99.90;;;;;;5003262;28;20593;-69
2022/03/05 07:03:57;;;;;;;16.40;14.40;;;1.00;99.90;;;;;;5016697;28;20458;-69
2022/03/05 07:06:24;;;;;;;19.20;14.23;;;1.60;99.90;;;;;;5013255;28;20872;-68
2022/03/05 07:08:51;;;;;;;18.43;14.13;;;2.60;99.90;;;;;;5001866;28;20457;-68
2022/03/05 07:11:18;;;;;;;18.93;13.40;;;3.40;99.90;;;;;;5001086;28;20996;-69
2022/03/05 07:13:44;;;;;;;18.50;14.10;;;3.90;99.90;;;;;;5001774;28;20458;-69
2022/03/05 07:16:11;;;;;;;22.03;16.13;;;4.40;97.90;;;;;;5003580;28;20456;-69
2022/03/05 07:18:40;;;;;;;14.10;12.47;;;4.80;95.90;;;;;;5003979;28;20935;-69
2022/03/05 07:21:06;;;;;;;18.53;14.37;;;5.40;94.00;;;;;;5003526;28;20488;-69
2022/03/05 07:23:33;;;;;;;18.13;12.60;;;5.60;92.90;;;;;;5000511;28;20454;-69
2022/03/05 07:26:00;;;;;;;17.57;14.00;;;6.00;91.80;;;;;;4999347;28;20458;-69
2022/03/05 07:28:27;;;;;;;17.13;13.70;;;6.40;90.50;;;;;;4999267;28;20467;-69
2022/03/05 07:30:55;;;;;;;19.10;13.10;;;6.10;90.30;;;;;;4998487;28;20485;-68
2022/03/05 07:33:22;;;;;;;19.27;12.50;;;6.80;87.50;;;;;;4998567;28;20492;-70
2022/03/05 07:35:51;;;;;;;16.60;12.87;;;7.60;84.90;;;;;;5007557;28;20454;-69
2022/03/05 07:38:18;;;;;;;17.53;14.50;;;8.10;80.40;;;;;;5005481;28;20458;-68
2022/03/05 07:40:44;;;;;;;17.30;13.97;;;8.30;77.90;;;;;;4999020;28;20491;-68
2022/03/05 07:43:12;;;;;;;19.03;14.60;;;8.40;77.10;;;;;;4999908;28;20437;-68
2022/03/05 07:45:39;;;;;;;19.00;15.13;;;9.30;76.70;;;;;;4999513;28;20509;-70
2022/03/05 07:48:06;;;;;;;17.17;14.90;;;9.90;72.10;;;;;;4999037;28;20458;-69
2022/03/05 07:50:33;;;;;;;20.67;14.80;;;10.60;67.20;;;;;;4998379;28;20474;-70
2022/03/05 07:53:01;;;;;;;19.00;16.37;;;10.60;65.50;;;;;;4997845;28;20462;-68
2022/03/05 07:55:28;;;;;;;20.00;14.40;;;10.70;64.40;;;;;;4997902;28;20457;-70
2022/03/05 07:57:54;;;;;;;18.07;16.20;;;11.10;63.70;;;;;;4999233;28;20453;-68
2022/03/05 08:00:21;;;;;;;17.83;15.03;;;11.70;61.10;;;;;;4997339;28;20485;-69
2022/03/05 08:02:48;;;;;;;17.90;16.00;;;12.20;60.90;;;;;;4998202;28;20446;-68
2022/03/05 08:05:14;;;;;;;19.30;16.00;;;12.40;59.30;;;;;;4997504;28;20798;-69
2022/03/05 08:07:41;;;;;;;17.00;15.17;;;13.20;58.30;;;;;;4997565;28;20509;-69
2022/03/05 08:10:10;;;;;;;23.10;15.90;;;13.70;56.10;;;;;;4997387;28;20454;-69
2022/03/05 08:12:37;;;;;;;17.20;14.67;;;13.80;55.20;;;;;;4997800;28;20999;-68
2022/03/05 08:15:05;;;;;;;18.00;16.20;;;14.30;55.10;;;;;;5008339;28;20458;-68
2022/03/05 08:17:32;;;;;;;19.57;16.13;;;14.10;54.60;;;;;;5008643;28;20461;-68
2022/03/05 08:19:58;;;;;;;18.93;16.00;;;14.40;54.10;;;;;;5006481;28;20482;-67
2022/03/05 08:22:26;;;;;;;17.90;16.00;;;14.10;54.60;;;;;;5009641;28;20476;-67
2022/03/05 08:24:53;;;;;;;18.00;16.10;;;13.80;53.10;;;;;;5000586;28;20454;-66
2022/03/05 08:27:21;;;;;;;22.20;16.17;;;14.60;52.90;;;;;;4998393;28;20941;-67
2022/03/05 08:29:48;;;;;;;17.93;16.03;;;15.00;51.50;;;;;;4997630;28;20960;-67
2022/03/05 08:32:14;;;;;;;20.50;16.90;;;15.10;51.50;;;;;;4997560;28;20489;-68
2022/03/05 08:34:41;;;;;;;17.70;15.33;;;14.50;52.30;;;;;;5009357;28;20454;-67
2022/03/05 08:37:08;;;;;;;17.70;15.80;;;14.70;61.70;;;;;;5016318;28;20454;-67
2022/03/05 08:39:35;;;;;;;18.37;15.70;;;15.60;54.50;;;;;;4999736;28;20461;-67
2022/03/05 08:42:01;;;;;;;25.10;15.00;;;15.30;55.60;;;;;;4996918;28;20478;-67
2022/03/05 08:44:29;;;;;;;19.13;16.47;;;15.70;58.40;;;;;;4996832;28;20936;-67
2022/03/05 08:46:56;;;;;;;20.50;17.10;;;14.30;53.60;;;;;;4996922;28;20454;-67
2022/03/05 08:49:23;;;;;;;19.40;17.40;;;15.40;52.80;;;;;;4997514;28;20467;-66
2022/03/05 08:51:49;;;;;;;17.33;15.70;;;16.40;52.60;;;;;;4996912;28;20478;-67
2022/03/05 08:54:17;;;;;;;19.50;17.20;;;16.70;53.20;;;;;;4996509;28;20466;-67
2022/03/05 08:56:44;;;;;;;18.63;16.63;;;16.50;50.90;;;;;;4996360;28;20458;-67
2022/03/05 08:59:11;;;;;;;18.20;15.90;;;16.50;51.80;;;;;;4996294;28;20816;-67
2022/03/05 09:01:39;;;;;;;17.83;16.07;;;17.50;48.70;;;;;;4996422;28;20489;-68
2022/03/05 09:04:06;;;;;;;17.70;15.90;;;18.10;47.10;;;;;;4996569;28;20458;-68
2022/03/05 09:06:32;;;;;;;18.57;16.67;;;17.40;47.20;;;;;;5005843;28;20446;-69
2022/03/05 09:09:00;;;;;;;16.80;15.10;;;17.20;46.30;;;;;;5010427;28;20462;-68
2022/03/05 09:11:27;;;;;;;17.20;15.40;;;17.70;47.60;;;;;;4998554;28;20470;-68
2022/03/05 09:13:54;;;;;;;18.10;16.30;;;18.00;46.40;;;;;;4998019;28;20519;-68
2022/03/05 09:16:21;;;;;;;18.50;16.50;;;17.80;45.20;;;;;;4998041;28;20461;-69
2022/03/05 09:18:49;;;;;;;18.07;16.47;;;17.70;48.00;;;;;;4996033;28;20459;-69
2022/03/05 09:21:16;;;;;;;17.60;16.00;;;17.80;45.60;;;;;;4996657;28;20489;-69
2022/03/05 09:23:42;;;;;;;18.20;16.30;;;18.30;46.30;;;;;;4996365;28;20948;-70
2022/03/05 09:26:09;;;;;;;18.80;17.00;;;18.30;44.60;;;;;;4996564;28;20582;-69
2022/03/05 09:28:36;;;;;;;19.67;17.27;;;18.40;43.60;;;;;;4996418;28;20461;-69
2022/03/05 09:31:03;;;;;;;17.20;15.60;;;18.50;44.50;;;;;;4995624;28;20485;-68
2022/03/05 09:33:30;;;;;;;17.17;15.53;;;18.20;45.90;;;;;;4996283;28;20465;-69
2022/03/05 09:35:58;;;;;;;16.73;15.23;;;19.10;45.60;;;;;;4995971;28;20516;-69
2022/03/05 09:38:25;;;;;;;17.27;15.67;;;19.60;42.20;;;;;;4996515;28;20487;-69
2022/03/05 09:40:52;;;;;;;16.27;14.57;;;19.60;41.30;;;;;;4996348;28;20485;-69
2022/03/05 09:43:19;;;;;;;17.73;15.83;;;19.60;41.60;;;;;;4996497;28;20450;-69
2022/03/05 09:45:46;;;;;;;17.67;15.83;;;18.10;43.90;;;;;;4995584;28;20458;-69
2022/03/05 09:48:15;;;;;;;16.07;14.57;;;17.40;43.60;;;;;;4995615;28;20469;-69
2022/03/05 09:50:42;;;;;;;16.73;15.10;;;17.70;42.50;;;;;;4995588;28;20521;-69
2022/03/05 09:53:10;;;;;;;14.40;13.00;;;18.10;43.50;;;;;;4995807;28;20459;-69
2022/03/05 09:55:37;;;;;;;15.17;13.33;;;18.40;42.60;;;;;;4998644;28;20458;-68
2022/03/05 09:58:04;;;;;;;14.27;12.73;;;18.70;42.30;;;;;;4996761;28;20454;-68
2022/03/05 10:00:31;;;;;;;15.17;13.63;;;18.90;39.90;;;;;;4994821;28;21066;-69
2022/03/05 10:02:59;;;;;;;13.53;12.23;;;18.70;41.40;;;;;;4995408;28;20446;-69
2022/03/05 10:05:28;;;;;;;13.53;12.23;;;18.30;40.90;;;;;;4995293;28;20438;-69
2022/03/05 10:08:07;;;;;;;13.20;12.00;;;18.60;41.90;;;;;;5001469;28;20582;-69
2022/03/05 10:10:46;;;;;;;12.17;11.07;;;18.70;40.20;;;;;;5003430;28;20474;-69
2022/03/05 10:13:18;;;;;;;11.60;10.50;;;18.50;39.50;;;;;;5001348;28;20434;-69
2022/03/05 10:15:45;;;;;;;12.87;11.57;;;18.10;40.60;;;;;;4995360;28;20466;-69
2022/03/05 10:18:12;;;;;;;10.40;9.40;;;18.20;39.10;;;;;;4995278;28;20461;-69
2022/03/05 10:20:45;;;;;;;11.77;10.67;;;18.10;38.60;;;;;;4994882;28;20489;-69
2022/03/05 10:23:13;;;;;;;14.53;10.97;;;17.50;38.80;;;;;;4995252;28;20448;-69
2022/03/05 10:25:43;;;;;;;12.83;11.60;;;17.10;39.70;;;;;;4996163;28;20454;-70
2022/03/05 10:28:12;;;;;;;13.03;11.37;;;16.80;40.50;;;;;;4995237;28;20442;-69
2022/03/05 10:30:40;;;;;;;12.73;10.53;;;16.90;42.00;;;;;;4997018;28;21000;-70
2022/03/05 10:33:07;;;;;;;12.07;10.87;;;17.30;41.70;;;;;;5003846;28;20450;-69
2022/03/05 10:35:35;;;;;;;12.60;11.43;;;17.10;39.80;;;;;;5000554;28;20481;-69
2022/03/05 10:38:02;;;;;;;12.53;11.23;;;17.10;39.20;;;;;;5003086;28;20454;-69
2022/03/05 10:40:31;;;;;;;12.43;11.23;;;16.10;39.80;;;;;;5016752;28;20480;-69
2022/03/05 10:43:05;;;;;;;12.90;11.50;;;16.00;40.80;;;;;;5000523;28;20458;-69
2022/03/05 10:45:49;;;;;;;12.63;11.37;;;16.40;39.80;;;;;;4998916;28;20438;-67
2022/03/05 10:48:27;;;;;;;9.80;8.90;;;17.40;40.10;;;;;;4998722;28;20856;-70
2022/03/05 10:51:01;;;;;;;8.90;8.07;;;16.60;38.40;;;;;;4998581;28;20553;-70
2022/03/05 10:53:39;;;;;;;9.70;8.80;;;17.30;38.90;;;;;;4998356;28;20445;-71
2022/03/05 10:56:26;;;;;;;10.30;9.23;;;16.40;38.40;;;;;;4998937;28;20539;-69
2022/03/05 10:59:08;;;;;;;8.87;7.77;;;16.20;38.80;;;;;;4999659;28;20461;-69
2022/03/05 11:01:37;;;;;;;9.20;8.40;;;16.50;38.70;;;;;;4998325;28;20576;-70
2022/03/05 11:04:05;;;;;;;8.37;7.67;;;17.00;38.10;;;;;;4999390;28;20458;-69
2022/03/05 11:06:35;;;;;;;9.53;8.63;;;16.30;37.50;;;;;;4998732;28;20488;-70
2022/03/05 11:09:02;;;;;;;9.40;8.50;;;15.20;38.20;;;;;;4998680;28;20516;-70
2022/03/05 11:11:30;;;;;;;10.70;9.60;;;14.60;39.50;;;;;;4999623;28;20506;-71
2022/03/05 11:13:57;;;;;;;10.47;9.47;;;14.00;40.30;;;;;;4999132;28;20457;-70
2022/03/05 11:16:26;;;;;;;10.17;9.13;;;13.40;41.20;;;;;;4998302;28;20823;-70
2022/03/05 11:18:52;;;;;;;8.57;7.77;;;13.00;41.80;;;;;;4998694;28;20564;-70
2022/03/05 11:21:19;;;;;;;9.80;8.80;;;12.90;43.00;;;;;;4998273;28;20482;-70
2022/03/05 11:23:46;;;;;;;10.13;9.13;;;12.50;42.70;;;;;;4998440;28;20821;-70
2022/03/05 11:26:16;;;;;;;11.10;10.03;;;11.80;42.20;;;;;;4998363;28;20454;-70
2022/03/05 11:28:47;;;;;;;10.03;8.97;;;11.10;43.60;;;;;;4998230;28;20823;-70
2022/03/05 11:31:19;;;;;;;10.60;9.50;;;10.70;45.70;;;;;;4998076;28;20470;-70
2022/03/05 11:33:49;;;;;;;10.80;9.57;;;10.30;44.90;;;;;;4998404;28;20937;-70
2022/03/05 11:36:28;;;;;;;11.33;10.03;;;10.20;46.00;;;;;;4998073;28;20489;-70
2022/03/05 11:39:13;;;;;;;11.50;10.03;;;10.30;46.50;;;;;;5008309;28;20769;-69
2022/03/05 11:41:59;;;;;;;11.10;9.20;;;10.40;48.20;;;;;;5007050;28;20486;-70
2022/03/05 11:44:28;;;;;;;11.63;10.47;;;10.70;47.00;;;;;;5007375;28;20462;-71
2022/03/05 11:47:37;;;;;;;10.13;9.00;;;10.60;47.10;;;;;;5005274;28;20521;-69
2022/03/05 11:50:17;;;;;;;10.10;8.37;;;10.20;46.90;;;;;;4999935;28;20534;-70
2022/03/05 11:53:07;;;;;;;9.87;8.87;;;10.50;48.30;;;;;;4999566;28;20438;-69
2022/03/05 11:55:40;;;;;;;10.77;9.67;;;11.00;48.00;;;;;;4998523;28;20457;-69
2022/03/05 11:58:35;;;;;;;10.27;9.27;;;11.30;46.30;;;;;;4999531;28;20509;-70
2022/03/05 12:01:33;;;;;;;10.60;9.50;;;11.20;46.40;;;;;;4998496;28;20490;-69
2022/03/05 12:04:04;;;;;;;10.70;9.60;;;11.00;45.60;;;;;;4996857;28;20504;-69
2022/03/05 12:06:43;;;;;;;12.67;10.90;;;11.10;46.10;;;;;;4997385;28;20470;-69
2022/03/05 12:09:35;;;;;;;10.63;9.43;;;10.70;45.50;;;;;;5000971;28;20434;-70
2022/03/05 12:12:03;;;;;;;10.63;9.57;;;11.10;46.80;;;;;;4997024;28;20477;-70
2022/03/05 12:15:07;;;;;;;13.10;10.07;;;11.20;45.80;;;;;;4996896;28;20465;-69
2022/03/05 12:17:35;;;;;;;11.47;10.27;;;10.90;47.50;;;;;;4996638;28;20983;-69
2022/03/05 12:20:04;;;;;;;12.43;10.40;;;11.00;47.00;;;;;;4996889;28;20457;-69
2022/03/05 12:22:33;;;;;;;10.70;9.60;;;11.00;47.00;;;;;;4997084;28;20549;-69
2022/03/05 12:25:00;;;;;;;11.23;8.90;;;10.90;47.10;;;;;;4996807;28;20508;-68
2022/03/05 12:27:30;;;;;;;10.00;8.70;;;11.40;57.60;;;;;;4997001;28;20465;-68
2022/03/05 12:29:57;;;;;;;8.70;7.80;;;11.70;50.80;;;;;;4996460;28;20446;-68
2022/03/05 12:32:30;;;;;;;7.40;6.67;;;11.20;50.20;;;;;;4996237;28;20546;-67
2022/03/05 12:35:03;;;;;;;7.90;7.20;;;11.70;50.20;;;;;;4996468;28;20446;-69
2022/03/05 12:37:32;;;;;;;7.50;6.80;;;12.00;50.60;;;;;;4996507;28;20446;-68
2022/03/05 12:40:00;;;;;;;9.57;7.70;;;12.20;48.50;;;;;;4996135;28;20476;-69
2022/03/05 12:42:35;;;;;;;7.90;7.10;;;12.60;44.60;;;;;;4998187;28;20862;-69
2022/03/05 12:45:02;;;;;;;9.27;6.80;;;11.70;42.90;;;;;;4998624;28;20438;-70
2022/03/05 12:47:33;;;;;;;7.63;6.93;;;11.50;44.50;;;;;;4998336;28;20458;-70
2022/03/05 12:50:17;;;;;;;8.93;7.33;;;11.40;45.80;;;;;;4996551;28;20442;-70
2022/03/05 12:52:55;;;;;;;8.17;7.27;;;11.50;45.90;;;;;;4996413;28;20497;-69
2022/03/05 12:55:23;;;;;;;9.37;7.00;;;11.70;45.80;;;;;;4995337;28;20782;-69
2022/03/05 12:57:50;;;;;;;8.20;7.00;;;12.00;42.50;;;;;;4996372;28;20549;-69
2022/03/05 13:00:17;;;;;;;8.40;7.57;;;11.70;43.00;;;;;;5016352;28;20456;-69
2022/03/05 13:02:44;;;;;;;7.80;7.00;;;11.20;43.50;;;;;;5002994;28;20462;-69
2022/03/05 13:05:14;;;;;;;11.10;8.27;;;11.30;44.90;;;;;;4996210;28;20462;-70
2022/03/05 13:07:41;;;;;;;7.27;6.57;;;11.40;45.70;;;;;;4996963;28;20457;-69
2022/03/05 13:10:11;;;;;;;8.70;7.80;;;11.60;45.70;;;;;;4999405;28;20442;-70
2022/03/05 13:12:39;;;;;;;8.23;7.40;;;11.90;45.50;;;;;;5017547;28;20526;-69
2022/03/05 13:15:07;;;;;;;8.77;7.90;;;12.10;44.50;;;;;;5006937;28;20446;-69
2022/03/05 13:17:34;;;;;;;8.80;7.90;;;12.40;42.90;;;;;;4996651;28;20464;-70
2022/03/05 13:20:01;;;;;;;8.20;7.40;;;12.30;43.80;;;;;;4998157;28;20458;-69
2022/03/05 13:22:29;;;;;;;7.87;7.13;;;12.10;44.90;;;;;;4998825;28;20493;-69
2022/03/05 13:24:56;;;;;;;8.10;7.40;;;12.00;42.90;;;;;;4999114;28;20454;-69
2022/03/05 13:27:26;;;;;;;9.20;8.30;;;12.00;43.50;;;;;;4996520;28;20480;-70
2022/03/05 13:29:53;;;;;;;9.37;8.00;;;12.20;42.80;;;;;;4995973;28;20508;-69
2022/03/05 13:32:19;;;;;;;8.60;7.80;;;12.00;43.60;;;;;;5004174;28;20481;-69
2022/03/05 13:34:46;;;;;;;9.13;8.23;;;11.80;43.90;;;;;;5007018;28;20522;-70
2022/03/05 13:37:15;;;;;;;10.90;9.27;;;12.00;44.80;;;;;;4997783;28;20461;-69
2022/03/05 13:39:42;;;;;;;8.07;7.37;;;12.00;44.30;;;;;;4996346;28;20847;-70
2022/03/05 13:42:14;;;;;;;8.73;7.93;;;12.10;44.50;;;;;;4997478;28;20481;-69
2022/03/05 13:44:43;;;;;;;10.50;9.40;;;12.20;44.60;;;;;;4996526;28;20533;-70
2022/03/05 13:47:11;;;;;;;11.60;8.57;;;12.20;44.10;;;;;;4996623;28;20454;-70
2022/03/05 13:49:39;;;;;;;9.03;8.17;;;12.10;44.00;;;;;;4996177;28;20458;-70
2022/03/05 13:52:15;;;;;;;8.33;7.53;;;11.70;42.70;;;;;;4995322;28;20474;-69
2022/03/05 13:54:44;;;;;;;9.57;8.67;;;11.10;42.30;;;;;;4995457;28;20465;-69
2022/03/05 13:57:14;;;;;;;9.63;8.20;;;11.00;45.10;;;;;;4994838;28;21012;-69
2022/03/05 13:59:43;;;;;;;9.07;8.23;;;11.10;45.90;;;;;;4994733;28;20454;-70
2022/03/05 14:02:11;;;;;;;8.70;7.30;;;11.10;44.40;;;;;;4994870;28;20869;-69
2022/03/05 14:04:55;;;;;;;9.30;8.40;;;11.30;44.50;;;;;;4995145;28;20450;-69
2022/03/05 14:07:22;;;;;;;8.83;8.03;;;11.50;44.70;;;;;;5008285;28;20454;-69
2022/03/05 14:09:49;;;;;;;9.03;8.13;;;11.70;43.90;;;;;;5017589;28;20441;-70
2022/03/05 14:12:18;;;;;;;9.57;8.37;;;11.50;43.30;;;;;;5017520;28;20458;-69
2022/03/05 14:14:51;;;;;;;8.97;8.07;;;11.30;45.10;;;;;;5007829;28;20450;-69
2022/03/05 14:17:26;;;;;;;9.60;8.43;;;11.30;42.80;;;;;;4995909;28;20454;-69
2022/03/05 14:20:05;;;;;;;9.00;7.37;;;11.20;42.70;;;;;;4996573;28;20456;-69
2022/03/05 14:22:35;;;;;;;9.40;7.93;;;11.20;43.30;;;;;;4996584;28;20481;-70
2022/03/05 14:25:02;;;;;;;9.80;8.80;;;10.70;43.60;;;;;;4996004;28;20920;-70
2022/03/05 14:27:28;;;;;;;8.67;7.40;;;10.90;43.20;;;;;;4995602;28;20460;-69
2022/03/05 14:29:56;;;;;;;8.70;7.80;;;11.10;44.60;;;;;;4996486;28;20456;-69
2022/03/05 14:32:23;;;;;;;7.80;7.10;;;10.90;44.70;;;;;;4995828;28;20488;-69
2022/03/05 14:34:50;;;;;;;7.67;6.87;;;10.80;45.40;;;;;;4995494;28;20454;-69
2022/03/05 14:37:17;;;;;;;9.03;8.13;;;10.90;45.80;;;;;;4995800;28;20512;-69
2022/03/05 14:39:43;;;;;;;8.93;8.10;;;10.80;45.40;;;;;;4996027;28;20481;-69
2022/03/05 14:42:10;;;;;;;8.80;7.90;;;10.90;44.40;;;;;;4996236;28;20532;-69
2022/03/05 14:44:37;;;;;;;9.03;8.13;;;10.80;42.90;;;;;;5010107;28;20461;-69
2022/03/05 14:47:05;;;;;;;8.60;7.63;;;10.80;44.60;;;;;;5005769;28;20446;-69
2022/03/05 14:49:32;;;;;;;8.07;7.00;;;10.60;45.30;;;;;;4996086;28;20450;-69
2022/03/05 14:51:59;;;;;;;9.07;8.27;;;10.60;44.70;;;;;;4994966;28;21000;-69
2022/03/05 14:54:26;;;;;;;8.77;7.30;;;10.60;44.50;;;;;;4995574;28;20457;-68
2022/03/05 14:56:52;;;;;;;7.77;6.97;;;10.60;45.40;;;;;;4995474;28;20450;-68
2022/03/05 14:59:19;;;;;;;8.57;7.77;;;10.70;45.10;;;;;;4994617;28;20461;-69
2022/03/05 15:01:46;;;;;;;9.00;7.50;;;10.80;44.10;;;;;;4994684;28;20489;-69
2022/03/05 15:04:15;;;;;;;8.43;7.60;;;10.80;43.40;;;;;;4994218;28;20969;-69
2022/03/05 15:06:42;;;;;;;7.10;6.40;;;10.50;43.90;;;;;;4994726;28;20454;-68
2022/03/05 15:09:08;;;;;;;7.17;6.50;;;10.30;43.40;;;;;;4994663;28;20524;-69
2022/03/05 15:11:36;;;;;;;7.63;6.83;;;10.20;45.80;;;;;;4994770;28;20477;-69
2022/03/05 15:14:03;;;;;;;8.17;7.37;;;10.20;44.20;;;;;;4994565;28;20458;-69
2022/03/05 15:16:30;;;;;;;7.13;6.30;;;10.30;44.80;;;;;;4994617;28;20516;-69
2022/03/05 15:18:58;;;;;;;7.70;6.70;;;10.40;45.40;;;;;;5001045;28;20440;-68
2022/03/05 15:21:26;;;;;;;8.30;7.50;;;10.50;45.10;;;;;;5018447;28;20470;-69
2022/03/05 15:23:53;;;;;;;7.77;7.07;;;10.30;44.90;;;;;;4998978;28;20491;-69
2022/03/05 15:26:20;;;;;;;8.00;7.27;;;10.20;45.20;;;;;;4998373;28;20453;-69
2022/03/05 15:28:47;;;;;;;9.10;8.23;;;10.20;44.80;;;;;;4997892;28;20949;-69
2022/03/05 15:31:15;;;;;;;8.17;7.37;;;10.30;45.00;;;;;;4997889;28;20508;-69
2022/03/05 15:33:43;;;;;;;7.47;6.83;;;10.30;45.30;;;;;;4997470;28;20461;-70
2022/03/05 15:36:11;;;;;;;7.50;6.80;;;10.40;45.30;;;;;;4997771;28;20513;-69
2022/03/05 15:38:39;;;;;;;8.40;7.47;;;10.20;45.20;;;;;;4997848;28;20482;-69
2022/03/05 15:41:07;;;;;;;8.93;7.20;;;10.10;45.10;;;;;;4998181;28;20481;-69
2022/03/05 15:43:34;;;;;;;8.30;7.47;;;9.90;46.30;;;;;;5005459;28;20484;-69
2022/03/05 15:46:01;;;;;;;7.93;6.87;;;9.80;46.60;;;;;;4997200;28;20481;-69
2022/03/05 15:48:27;;;;;;;8.63;7.73;;;9.80;47.10;;;;;;4997343;28;20454;-69
2022/03/05 15:50:54;;;;;;;8.73;7.83;;;9.70;47.30;;;;;;4997250;28;20836;-69
2022/03/05 15:53:21;;;;;;;8.37;7.27;;;9.60;46.90;;;;;;4997414;28;20817;-71
2022/03/05 15:55:49;;;;;;;7.67;6.97;;;9.50;46.30;;;;;;4997256;28;20517;-69
2022/03/05 15:58:15;;;;;;;8.37;7.57;;;9.30;47.00;;;;;;4996843;28;20453;-69
2022/03/05 16:00:42;;;;;;;8.53;7.63;;;9.10;46.60;;;;;;4996825;28;20482;-69
2022/03/05 16:03:09;;;;;;;8.30;7.40;;;8.90;47.10;;;;;;4997145;28;20472;-69
2022/03/05 16:05:36;;;;;;;8.87;7.33;;;8.80;47.90;;;;;;4997351;28;20461;-69
2022/03/05 16:08:03;;;;;;;9.27;8.37;;;8.80;48.40;;;;;;4996832;28;20458;-69
2022/03/05 16:10:30;;;;;;;10.20;7.00;;;8.70;47.80;;;;;;4996760;28;20462;-69
2022/03/05 16:12:58;;;;;;;8.93;7.10;;;8.40;47.70;;;;;;4997073;28;20450;-69
2022/03/05 16:15:25;;;;;;;8.80;7.57;;;8.20;48.60;;;;;;5006196;28;20552;-69
2022/03/05 16:17:52;;;;;;;7.43;6.73;;;8.20;49.50;;;;;;5015882;28;20432;-69
2022/03/05 16:20:18;;;;;;;8.60;7.00;;;8.20;49.40;;;;;;4997018;28;20450;-69
2022/03/05 16:22:45;;;;;;;8.57;7.77;;;8.20;48.70;;;;;;4996563;28;20482;-70
2022/03/05 16:25:13;;;;;;;9.40;7.87;;;8.20;48.80;;;;;;4996957;28;20782;-69
2022/03/05 16:27:40;;;;;;;8.27;7.50;;;8.10;48.90;;;;;;4996387;28;20454;-69
2022/03/05 16:30:10;;;;;;;8.03;7.23;;;7.90;48.80;;;;;;4999879;28;20495;-69
2022/03/05 16:32:38;;;;;;;8.93;7.70;;;7.90;48.90;;;;;;4996354;28;21008;-69
2022/03/05 16:35:06;;;;;;;7.90;7.10;;;7.80;49.20;;;;;;4997939;28;20512;-69
2022/03/05 16:37:33;;;;;;;7.53;6.77;;;7.80;49.60;;;;;;4998014;28;20458;-69
2022/03/05 16:40:00;;;;;;;8.30;7.47;;;7.60;50.00;;;;;;4997625;28;20457;-69
2022/03/05 16:42:27;;;;;;;10.00;8.20;;;7.40;49.90;;;;;;4996048;28;20489;-69
2022/03/05 16:44:54;;;;;;;9.00;7.40;;;7.20;49.90;;;;;;4996175;28;20484;-69
2022/03/05 16:47:22;;;;;;;8.97;7.30;;;7.20;50.50;;;;;;4996331;28;20454;-68
2022/03/05 16:49:49;;;;;;;9.30;7.60;;;7.20;50.90;;;;;;4995934;28;20953;-69
2022/03/05 16:52:17;;;;;;;9.37;7.10;;;7.10;51.40;;;;;;4996068;28;20470;-69
2022/03/05 16:54:44;;;;;;;9.90;7.37;;;7.10;51.30;;;;;;4995825;28;20458;-69
2022/03/05 16:57:11;;;;;;;7.93;7.10;;;7.20;51.20;;;;;;4996020;28;20462;-69
2022/03/05 16:59:37;;;;;;;7.47;6.70;;;7.20;50.90;;;;;;4996126;28;20465;-69
2022/03/05 17:02:05;;;;;;;8.80;7.80;;;7.20;51.00;;;;;;4997712;28;20486;-69
2022/03/05 17:04:33;;;;;;;10.43;8.60;;;7.10;51.00;;;;;;5002592;28;20516;-69
2022/03/05 17:07:00;;;;;;;10.27;7.87;;;7.10;51.40;;;;;;4995881;28;20457;-69
2022/03/05 17:09:27;;;;;;;8.80;7.87;;;6.80;51.80;;;;;;4996273;28;20458;-68
2022/03/05 17:11:53;;;;;;;11.13;7.30;;;6.80;52.50;;;;;;4996384;28;20481;-69
2022/03/05 17:14:20;;;;;;;10.20;7.97;;;6.60;52.70;;;;;;4995746;28;20454;-68
2022/03/05 17:16:48;;;;;;;12.93;8.60;;;6.50;53.10;;;;;;4995765;28;20465;-68
2022/03/05 17:19:15;;;;;;;9.80;8.27;;;6.40;53.40;;;;;;4995663;28;20462;-70
2022/03/05 17:21:43;;;;;;;9.40;8.07;;;6.30;53.60;;;;;;4995275;28;20478;-69
2022/03/05 17:24:10;;;;;;;11.03;8.00;;;6.40;53.80;;;;;;4995627;28;20822;-69
2022/03/05 17:26:37;;;;;;;10.73;9.03;;;6.10;53.70;;;;;;4995153;28;20926;-69
2022/03/05 17:29:04;;;;;;;11.03;8.33;;;6.00;54.10;;;;;;4995933;28;20465;-69
2022/03/05 17:31:31;;;;;;;11.20;8.60;;;6.00;54.30;;;;;;4995574;28;20474;-69
2022/03/05 17:33:58;;;;;;;9.80;8.57;;;6.00;54.20;;;;;;4995569;28;20456;-68
2022/03/05 17:36:24;;;;;;;11.90;8.70;;;5.80;54.50;;;;;;4995899;28;20453;-66
2022/03/05 17:38:52;;;;;;;11.17;8.30;;;5.80;54.60;;;;;;4995390;28;20972;-68
2022/03/05 17:41:19;;;;;;;10.73;9.00;;;5.80;54.40;;;;;;5004914;28;20488;-67
2022/03/05 17:43:46;;;;;;;9.50;8.27;;;5.80;54.60;;;;;;5005270;28;20482;-67
2022/03/05 17:46:12;;;;;;;12.17;10.37;;;5.60;54.60;;;;;;4995651;28;20458;-67
2022/03/05 17:48:39;;;;;;;9.60;8.53;;;5.70;54.90;;;;;;5011270;28;20472;-66